createdAt,value
2023-01-08T00:02:22.680Z,2.18
2023-01-08T00:04:49.374Z,2.14
2023-01-08T00:07:16.071Z,2.08
2023-01-08T00:09:44.197Z,2.02
2023-01-08T00:12:10.969Z,1.96
2023-01-08T00:14:37.647Z,1.89
2023-01-08T00:17:04.645Z,1.81
2023-01-08T00:19:31.490Z,1.73
2023-01-08T00:21:58.089Z,1.62
2023-01-08T00:24:24.835Z,1.49
2023-01-08T00:26:52.775Z,1.41
2023-01-08T00:29:19.364Z,1.39
2023-01-08T00:31:46.028Z,1.40
2023-01-08T00:34:13.007Z,1.38
2023-01-08T00:36:39.632Z,1.42
2023-01-08T00:39:06.384Z,1.50
2023-01-08T00:41:33.465Z,1.64
2023-01-08T00:44:01.640Z,1.71
2023-01-08T00:46:28.353Z,1.74
2023-01-08T00:48:54.993Z,1.81
2023-01-08T00:51:21.756Z,1.88
2023-01-08T00:53:48.498Z,1.86
2023-01-08T00:56:15.162Z,1.85
2023-01-08T00:58:41.800Z,1.85
2023-01-08T01:01:15.106Z,1.84
2023-01-08T01:03:42.599Z,1.81
2023-01-08T01:06:11.721Z,1.79
2023-01-08T01:08:38.595Z,1.77
2023-01-08T01:11:09.594Z,1.77
2023-01-08T01:13:36.214Z,1.78
2023-01-08T01:16:04.235Z,1.81
2023-01-08T01:18:32.247Z,1.85
2023-01-08T01:20:59.055Z,1.86
2023-01-08T01:23:25.750Z,1.90
2023-01-08T01:25:54.396Z,1.96
2023-01-08T01:28:21.079Z,2.00
2023-01-08T01:30:53.983Z,2.02
2023-01-08T01:33:20.656Z,2.01
2023-01-08T01:35:48.687Z,1.98
2023-01-08T01:38:15.336Z,1.88
2023-01-08T01:40:42.274Z,1.73
2023-01-08T01:43:12.820Z,1.57
2023-01-08T01:45:39.910Z,1.43
2023-01-08T01:48:11.209Z,1.35
2023-01-08T01:50:42.621Z,1.30
2023-01-08T01:53:12.958Z,1.31
2023-01-08T01:55:42.723Z,1.32
2023-01-08T01:58:13.773Z,1.34
2023-01-08T02:00:41.630Z,1.34
2023-01-08T02:03:10.189Z,1.41
2023-01-08T02:05:42.246Z,1.48
2023-01-08T02:08:18.148Z,1.54
2023-01-08T02:10:51.649Z,1.58
2023-01-08T02:13:23.383Z,1.64
2023-01-08T02:15:57.482Z,1.69
2023-01-08T02:18:31.321Z,1.72
2023-01-08T02:21:03.497Z,1.68
2023-01-08T02:23:42.270Z,1.61
2023-01-08T02:26:17.279Z,1.45
2023-01-08T02:28:49.496Z,1.34
2023-01-08T02:31:18.080Z,1.20
2023-01-08T02:33:44.778Z,1.14
2023-01-08T02:36:23.908Z,1.10
2023-01-08T02:39:04.335Z,1.07
2023-01-08T02:41:43.158Z,1.09
2023-01-08T02:44:17.532Z,1.15
2023-01-08T02:46:44.851Z,1.17
2023-01-08T02:49:14.424Z,1.22
2023-01-08T02:51:47.178Z,1.25
2023-01-08T02:54:17.909Z,1.24
2023-01-08T02:56:49.727Z,1.16
2023-01-08T02:59:18.976Z,1.07
2023-01-08T03:01:46.620Z,1.05
2023-01-08T03:04:17.657Z,1.02
2023-01-08T03:06:45.695Z,0.97
2023-01-08T03:09:13.289Z,0.90
2023-01-08T03:11:45.757Z,0.80
2023-01-08T03:14:20.273Z,0.74
2023-01-08T03:16:49.382Z,0.72
2023-01-08T03:19:21.877Z,0.71
2023-01-08T03:21:51.376Z,0.75
2023-01-08T03:24:22.585Z,0.77
2023-01-08T03:26:51.924Z,0.83
2023-01-08T03:29:24.412Z,0.87
2023-01-08T03:31:52.918Z,0.92
2023-01-08T03:34:22.734Z,0.94
2023-01-08T03:36:50.612Z,0.98
2023-01-08T03:39:21.077Z,0.98
2023-01-08T03:41:48.887Z,0.96
2023-01-08T03:44:15.649Z,0.93
2023-01-08T03:46:49.107Z,0.90
2023-01-08T03:49:16.207Z,0.93
2023-01-08T03:51:44.976Z,0.91
2023-01-08T03:54:14.385Z,0.85
2023-01-08T03:56:41.182Z,0.77
2023-01-08T03:59:07.874Z,0.67
2023-01-08T04:01:35.226Z,0.60
2023-01-08T04:04:03.441Z,0.57
2023-01-08T04:06:30.076Z,0.58
2023-01-08T04:08:56.821Z,0.60
2023-01-08T04:11:23.446Z,0.65
2023-01-08T04:13:50.084Z,0.68
2023-01-08T04:16:16.799Z,0.76
2023-01-08T04:18:43.466Z,0.81
2023-01-08T04:21:11.388Z,0.84
2023-01-08T04:23:37.979Z,0.86
2023-01-08T04:26:05.039Z,0.90
2023-01-08T04:28:31.640Z,0.93
2023-01-08T04:30:58.317Z,1.00
2023-01-08T04:33:25.560Z,0.98
2023-01-08T04:35:52.189Z,0.87
2023-01-08T04:38:20.141Z,0.75
2023-01-08T04:40:46.727Z,0.62
2023-01-08T04:43:13.336Z,0.53
2023-01-08T04:45:39.920Z,0.50
2023-01-08T04:48:07.190Z,0.51
2023-01-08T04:50:33.835Z,0.53
2023-01-08T04:53:00.410Z,0.58
2023-01-08T04:55:28.397Z,0.69
2023-01-08T04:57:55.195Z,0.77
2023-01-08T05:00:22.047Z,0.82
2023-01-08T05:02:48.787Z,0.90
2023-01-08T05:05:15.947Z,0.94
2023-01-08T05:07:42.648Z,0.94
2023-01-08T05:10:10.381Z,0.97
2023-01-08T05:12:38.330Z,0.98
2023-01-08T05:15:05.802Z,1.00
2023-01-08T05:17:32.419Z,1.01
2023-01-08T05:19:59.044Z,1.03
2023-01-08T05:22:25.699Z,1.06
2023-01-08T05:24:52.360Z,1.08
2023-01-08T05:27:18.992Z,1.14
2023-01-08T05:29:46.942Z,1.18
2023-01-08T05:32:16.368Z,1.19
2023-01-08T05:34:43.193Z,1.13
2023-01-08T05:37:09.872Z,1.03
2023-01-08T05:39:36.684Z,1.00
2023-01-08T05:42:03.594Z,0.98
2023-01-08T05:44:30.401Z,1.01
2023-01-08T05:46:58.512Z,1.04
2023-01-08T05:49:25.295Z,1.07
2023-01-08T05:51:51.873Z,1.13
2023-01-08T05:54:18.562Z,1.18
2023-01-08T05:56:45.192Z,1.22
2023-01-08T05:59:11.970Z,1.26
2023-01-08T06:01:38.653Z,1.26
2023-01-08T06:04:08.447Z,1.28
2023-01-08T06:06:35.060Z,1.30
2023-01-08T06:09:01.777Z,1.26
2023-01-08T06:11:28.395Z,1.22
2023-01-08T06:13:54.998Z,1.17
2023-01-08T06:16:21.669Z,1.15
2023-01-08T06:18:48.317Z,1.17
2023-01-08T06:21:16.433Z,1.21
2023-01-08T06:23:43.077Z,1.24
2023-01-08T06:26:09.714Z,1.26
2023-01-08T06:28:36.507Z,1.25
2023-01-08T06:31:03.921Z,1.19
2023-01-08T06:33:31.352Z,1.18
2023-01-08T06:36:00.450Z,1.18
2023-01-08T06:38:32.398Z,1.20
2023-01-08T06:40:59.035Z,1.20
2023-01-08T06:43:25.616Z,1.18
2023-01-08T06:45:58.374Z,1.20
2023-01-08T06:48:25.697Z,1.20
2023-01-08T06:50:52.651Z,1.22
2023-01-08T06:53:19.420Z,1.24
2023-01-08T06:55:47.459Z,1.25
2023-01-08T06:58:14.311Z,1.25
2023-01-08T07:00:41.827Z,1.29
2023-01-08T07:03:08.562Z,1.33
2023-01-08T07:05:35.663Z,1.35
2023-01-08T07:08:02.275Z,1.36
2023-01-08T07:10:31.156Z,1.40
2023-01-08T07:12:59.077Z,1.41
2023-01-08T07:15:25.693Z,1.41
2023-01-08T07:17:52.321Z,1.41
2023-01-08T07:20:19.059Z,1.41
2023-01-08T07:22:45.686Z,1.41
2023-01-08T07:25:12.327Z,1.38
2023-01-08T07:27:38.936Z,1.40
2023-01-08T07:30:12.837Z,1.39
2023-01-08T07:32:44.651Z,1.37
2023-01-08T07:35:11.228Z,1.37
2023-01-08T07:37:39.607Z,1.39
2023-01-08T07:40:07.624Z,1.43
2023-01-08T07:42:34.251Z,1.40
2023-01-08T07:45:00.843Z,1.44
2023-01-08T07:47:28.797Z,1.44
2023-01-08T07:49:55.377Z,1.43
2023-01-08T07:52:22.229Z,1.34
2023-01-08T07:54:48.876Z,1.23
2023-01-08T07:57:15.477Z,1.13
2023-01-08T07:59:42.100Z,1.08
2023-01-08T08:02:10.501Z,1.08
2023-01-08T08:04:38.568Z,1.09
2023-01-08T08:07:05.179Z,1.14
2023-01-08T08:09:31.784Z,1.21
2023-01-08T08:11:58.624Z,1.31
2023-01-08T08:14:25.212Z,1.42
2023-01-08T08:16:51.811Z,1.53
2023-01-08T08:19:18.409Z,1.62
2023-01-08T08:21:46.360Z,1.69
2023-01-08T08:24:13.163Z,1.75
2023-01-08T08:26:39.789Z,1.82
2023-01-08T08:29:06.426Z,1.87
2023-01-08T08:31:33.163Z,1.92
2023-01-08T08:33:59.869Z,2.01
2023-01-08T08:36:28.714Z,2.09
2023-01-08T08:38:56.856Z,2.19
2023-01-08T08:41:23.502Z,2.26
2023-01-08T08:43:51.356Z,2.30
2023-01-08T08:46:18.279Z,2.33
2023-01-08T08:48:45.907Z,2.41
2023-01-08T08:51:12.835Z,2.50
2023-01-08T08:53:39.502Z,2.61
2023-01-08T08:56:07.989Z,2.81
2023-01-08T08:58:34.717Z,2.98
2023-01-08T09:01:01.902Z,3.23
2023-01-08T09:03:28.517Z,3.48
2023-01-08T09:05:55.399Z,3.77
2023-01-08T09:08:22.058Z,4.01
2023-01-08T09:10:48.840Z,4.21
2023-01-08T09:13:16.786Z,4.44
2023-01-08T09:15:43.447Z,4.62
2023-01-08T09:18:10.297Z,4.70
2023-01-08T09:20:37.218Z,4.70
2023-01-08T09:23:04.267Z,4.68
2023-01-08T09:25:30.974Z,4.65
2023-01-08T09:28:01.720Z,4.61
2023-01-08T09:30:30.076Z,4.55
2023-01-08T09:32:57.452Z,4.50
2023-01-08T09:35:24.364Z,4.48
2023-01-08T09:37:51.513Z,4.51
2023-01-08T09:40:19.071Z,4.60
2023-01-08T09:42:53.809Z,4.74
2023-01-08T09:45:27.655Z,4.86
2023-01-08T09:48:00.120Z,5.05
2023-01-08T09:50:28.581Z,5.23
2023-01-08T09:52:55.348Z,5.41
2023-01-08T09:55:22.319Z,5.65
2023-01-08T09:57:49.267Z,5.86
2023-01-08T10:00:20.289Z,6.11
2023-01-08T10:02:47.499Z,6.33
2023-01-08T10:05:17.539Z,6.52
2023-01-08T10:07:45.084Z,6.63
2023-01-08T10:10:18.602Z,6.75
2023-01-08T10:12:45.874Z,6.88
2023-01-08T10:15:15.937Z,7.09
2023-01-08T10:17:47.244Z,7.37
2023-01-08T10:20:17.451Z,7.79
2023-01-08T10:22:44.800Z,8.25
2023-01-08T10:25:13.861Z,8.74
2023-01-08T10:27:48.915Z,9.14
2023-01-08T10:30:17.332Z,9.27
2023-01-08T10:32:48.633Z,9.21
2023-01-08T10:41:19.657Z,9.01
2023-01-08T10:43:51.963Z,8.94
2023-01-08T10:52:29.482Z,8.64
2023-01-08T10:54:56.476Z,8.53
2023-01-08T10:57:27.232Z,8.46
2023-01-08T10:59:54.781Z,8.40
2023-01-08T11:17:10.710Z,8.09
2023-01-08T11:22:50.771Z,8.06
2023-01-08T11:28:23.389Z,8.05
2023-01-08T11:36:49.634Z,8.13
2023-01-08T11:45:08.386Z,8.12
2023-01-08T11:47:43.334Z,8.11
2023-01-08T11:50:19.235Z,8.13
2023-01-08T11:56:18.935Z,8.17
2023-01-08T11:59:02.293Z,8.16
2023-01-08T12:01:44.415Z,8.18
2023-01-08T12:04:37.223Z,8.17
2023-01-08T12:07:14.785Z,8.16
2023-01-08T12:09:45.860Z,8.18
2023-01-08T12:12:30.700Z,8.22
2023-01-08T12:15:09.811Z,8.20
2023-01-08T12:18:01.455Z,8.18
2023-01-08T12:20:35.198Z,8.12
2023-01-08T12:23:15.096Z,8.12
2023-01-08T12:25:59.906Z,8.11
2023-01-08T12:31:30.749Z,8.05
2023-01-08T12:34:05.628Z,8.07
2023-01-08T12:36:38.228Z,8.08
2023-01-08T12:39:12.287Z,8.12
2023-01-08T12:41:43.143Z,8.17
2023-01-08T12:44:12.478Z,8.22
2023-01-08T12:46:43.296Z,8.26
2023-01-08T12:49:13.805Z,8.27
2023-01-08T12:51:54.073Z,8.29
2023-01-08T12:54:30.693Z,8.32
2023-01-08T12:57:07.297Z,8.35
2023-01-08T12:59:42.838Z,8.40
2023-01-08T13:02:23.755Z,8.42
2023-01-08T13:04:50.517Z,8.47
2023-01-08T13:07:21.289Z,8.54
2023-01-08T13:09:56.250Z,8.55
2023-01-08T13:12:33.660Z,8.54
2023-01-08T13:15:00.647Z,8.52
2023-01-08T13:17:28.645Z,8.52
2023-01-08T13:20:00.327Z,8.55
2023-01-08T13:22:29.975Z,8.56
2023-01-08T13:25:30.296Z,8.58
2023-01-08T13:27:57.636Z,8.56
2023-01-08T13:30:34.844Z,8.57
2023-01-08T13:33:01.900Z,8.57
2023-01-08T13:35:31.367Z,8.57
2023-01-08T13:38:17.544Z,8.59
2023-01-08T13:40:56.533Z,8.62
2023-01-08T13:43:28.459Z,8.65
2023-01-08T13:46:09.012Z,8.68
2023-01-08T13:48:38.702Z,8.67
2023-01-08T13:51:05.665Z,8.66
2023-01-08T13:53:33.974Z,8.66
2023-01-08T13:56:06.659Z,8.68
2023-01-08T13:58:36.628Z,8.70
2023-01-08T14:01:05.922Z,8.72
2023-01-08T14:03:35.795Z,8.74
2023-01-08T14:06:07.184Z,8.77
2023-01-08T14:08:34.417Z,8.78
2023-01-08T14:11:04.044Z,8.81
2023-01-08T14:13:34.263Z,8.81
2023-01-08T14:16:05.482Z,8.82
2023-01-08T14:18:32.533Z,8.82
2023-01-08T14:20:59.384Z,8.83
2023-01-08T14:23:30.259Z,8.85
2023-01-08T14:26:01.193Z,8.86
2023-01-08T14:28:29.657Z,8.85
2023-01-08T14:30:57.660Z,8.81
2023-01-08T14:33:28.901Z,8.75
2023-01-08T14:35:56.670Z,8.70
2023-01-08T14:38:23.692Z,8.67
2023-01-08T14:40:58.057Z,8.66
2023-01-08T14:43:25.159Z,8.63
2023-01-08T14:45:54.737Z,8.61
2023-01-08T14:48:25.164Z,8.59
2023-01-08T14:51:02.845Z,8.56
2023-01-08T14:53:33.203Z,8.52
2023-01-08T14:56:01.732Z,8.48
2023-01-08T14:58:35.520Z,8.45
2023-01-08T15:01:07.783Z,8.44
2023-01-08T15:03:36.777Z,8.43
2023-01-08T15:06:04.304Z,8.45
2023-01-08T15:08:36.764Z,8.46
2023-01-08T15:11:05.685Z,8.44
2023-01-08T15:13:34.654Z,8.46
2023-01-08T15:16:08.264Z,8.49
2023-01-08T15:18:43.222Z,8.55
2023-01-08T15:21:10.655Z,8.52
2023-01-08T15:23:42.004Z,8.47
2023-01-08T15:26:11.606Z,8.39
2023-01-08T15:28:43.779Z,8.32
2023-01-08T15:31:11.883Z,8.32
2023-01-08T15:33:38.512Z,8.33
2023-01-08T15:36:06.690Z,8.33
2023-01-08T15:38:33.325Z,8.28
2023-01-08T15:41:00.023Z,8.23
2023-01-08T15:43:26.874Z,8.13
2023-01-08T15:45:53.815Z,8.09
2023-01-08T15:48:21.920Z,8.08
2023-01-08T15:50:48.827Z,8.06
2023-01-08T15:53:19.254Z,8.02
2023-01-08T15:55:46.929Z,7.99
2023-01-08T15:58:15.317Z,7.95
2023-01-08T16:00:44.235Z,7.92
2023-01-08T16:03:13.099Z,7.88
2023-01-08T16:05:41.384Z,7.86
2023-01-08T16:08:08.353Z,7.84
2023-01-08T16:10:35.073Z,7.83
2023-01-08T16:13:02.095Z,7.83
2023-01-08T16:15:30.818Z,7.79
2023-01-08T16:17:58.133Z,7.77
2023-01-08T16:20:25.346Z,7.70
2023-01-08T16:22:54.966Z,7.65
2023-01-08T16:25:21.785Z,7.61
2023-01-08T16:27:48.865Z,7.57
2023-01-08T16:30:16.612Z,7.52
2023-01-08T16:32:43.617Z,7.44
2023-01-08T16:35:11.174Z,7.38
2023-01-08T16:37:38.879Z,7.31
2023-01-08T16:40:08.380Z,7.23
2023-01-08T16:42:34.998Z,7.10
2023-01-08T16:45:01.839Z,6.94
2023-01-08T16:47:28.546Z,6.86
2023-01-08T16:49:55.371Z,6.78
2023-01-08T16:52:22.543Z,6.70
2023-01-08T16:54:49.332Z,6.66
2023-01-08T16:57:17.571Z,6.59
2023-01-08T16:59:44.287Z,6.46
2023-01-08T17:02:11.058Z,6.35
2023-01-08T17:04:38.092Z,6.22
2023-01-08T17:07:04.969Z,6.11
2023-01-08T17:09:31.729Z,6.00
2023-01-08T17:11:58.369Z,5.93
2023-01-08T17:14:27.051Z,5.83
2023-01-08T17:16:54.118Z,5.75
2023-01-08T17:19:23.851Z,5.71
2023-01-08T17:21:51.075Z,5.70
2023-01-08T17:24:18.036Z,5.73
2023-01-08T17:26:44.962Z,5.72
2023-01-08T17:29:12.008Z,5.76
2023-01-08T17:31:40.417Z,5.82
2023-01-08T17:34:08.615Z,5.85
2023-01-08T17:36:36.390Z,5.86
2023-01-08T17:39:03.549Z,5.81
2023-01-08T17:41:50.053Z,5.75
2023-01-08T17:44:16.726Z,5.66
2023-01-08T17:46:48.189Z,5.57
2023-01-08T17:49:16.415Z,5.43
2023-01-08T17:51:44.224Z,5.36
2023-01-08T17:54:11.688Z,5.32
2023-01-08T17:56:38.590Z,5.32
2023-01-08T17:59:05.427Z,5.36
2023-01-08T18:01:34.008Z,5.34
2023-01-08T18:04:02.659Z,5.30
2023-01-08T18:06:29.487Z,5.28
2023-01-08T18:08:56.908Z,5.32
2023-01-08T18:11:25.383Z,5.36
2023-01-08T18:13:55.843Z,5.42
2023-01-08T18:16:22.960Z,5.44
2023-01-08T18:18:50.341Z,5.43
2023-01-08T18:21:19.599Z,5.43
2023-01-08T18:23:49.375Z,5.44
2023-01-08T18:26:18.483Z,5.47
2023-01-08T18:28:45.231Z,5.47
2023-01-08T18:31:13.001Z,5.45
2023-01-08T18:33:40.375Z,5.47
2023-01-08T18:36:09.583Z,5.50
2023-01-08T18:38:39.355Z,5.55
2023-01-08T18:41:07.440Z,5.54
2023-01-08T18:43:35.673Z,5.52
2023-01-08T18:46:04.496Z,5.54
2023-01-08T18:48:32.372Z,5.54
2023-01-08T18:51:05.183Z,5.51
2023-01-08T18:53:32.996Z,5.47
2023-01-08T18:56:02.241Z,5.43
2023-01-08T18:58:29.822Z,5.36
2023-01-08T19:01:03.329Z,5.28
2023-01-08T19:03:30.387Z,5.20
2023-01-08T19:05:57.136Z,5.18
2023-01-08T19:08:24.224Z,5.18
2023-01-08T19:10:51.276Z,5.16
2023-01-08T19:13:19.488Z,5.13
2023-01-08T19:15:46.507Z,5.15
2023-01-08T19:18:13.187Z,5.12
2023-01-08T19:20:41.316Z,5.15
2023-01-08T19:23:10.383Z,5.15
2023-01-08T19:25:38.789Z,5.16
2023-01-08T19:28:05.881Z,5.14
2023-01-08T19:30:34.107Z,5.12
2023-01-08T19:33:01.148Z,5.11
2023-01-08T19:35:28.782Z,5.12
2023-01-08T19:37:55.740Z,5.16
2023-01-08T19:40:22.433Z,5.19
2023-01-08T19:43:07.716Z,5.20
2023-01-08T19:45:37.479Z,5.20
2023-01-08T19:48:07.510Z,5.17
2023-01-08T19:50:37.447Z,5.15
2023-01-08T19:53:04.965Z,5.11
2023-01-08T19:55:31.945Z,5.07
2023-01-08T19:57:59.703Z,5.05
2023-01-08T20:00:26.508Z,5.05
2023-01-08T20:02:54.881Z,5.04
2023-01-08T20:05:22.142Z,5.04
2023-01-08T20:07:51.916Z,5.09
2023-01-08T20:10:19.011Z,5.12
2023-01-08T20:12:45.860Z,5.15
2023-01-08T20:15:12.792Z,5.21
2023-01-08T20:17:40.598Z,5.25
2023-01-08T20:20:11.247Z,5.25
2023-01-08T20:22:38.031Z,5.26
2023-01-08T20:25:05.727Z,5.29
2023-01-08T20:27:32.568Z,5.33
2023-01-08T20:30:00.769Z,5.35
2023-01-08T20:32:27.570Z,5.35
2023-01-08T20:34:56.567Z,5.33
2023-01-08T20:37:26.190Z,5.33
2023-01-08T20:39:53.167Z,5.29
2023-01-08T20:42:33.060Z,5.21
2023-01-08T20:45:01.522Z,5.14
2023-01-08T20:47:28.702Z,5.10
2023-01-08T20:49:55.441Z,5.12
2023-01-08T20:52:22.367Z,5.13
2023-01-08T20:54:53.194Z,5.15
2023-01-08T20:57:21.117Z,5.13
2023-01-08T20:59:48.256Z,5.11
2023-01-08T21:02:15.174Z,5.06
2023-01-08T21:04:43.750Z,5.02
2023-01-08T21:07:10.888Z,5.02
2023-01-08T21:09:40.184Z,5.02
2023-01-08T21:12:08.917Z,5.06
2023-01-08T21:14:35.733Z,5.14
2023-01-08T21:17:03.139Z,5.19
2023-01-08T21:19:29.969Z,5.21
2023-01-08T21:21:56.845Z,5.20
2023-01-08T21:24:23.561Z,5.16
2023-01-08T21:26:50.299Z,5.14
2023-01-08T21:29:20.804Z,5.16
2023-01-08T21:31:47.844Z,5.15
2023-01-08T21:34:14.857Z,5.19
2023-01-08T21:36:41.729Z,5.21
2023-01-08T21:39:10.393Z,5.20
2023-01-08T21:41:55.878Z,5.19
2023-01-08T21:44:44.884Z,5.20
2023-01-08T21:47:13.885Z,5.24
2023-01-08T21:49:41.744Z,5.27
2023-01-08T21:52:27.424Z,5.29
2023-01-08T21:54:54.517Z,5.36
2023-01-08T21:57:22.664Z,5.40
2023-01-08T21:59:51.883Z,5.42
2023-01-08T22:02:21.979Z,5.42
2023-01-08T22:04:49.660Z,5.40
2023-01-08T22:07:16.790Z,5.40
2023-01-08T22:09:43.649Z,5.37
2023-01-08T22:12:10.589Z,5.32
2023-01-08T22:14:37.252Z,5.25
2023-01-08T22:17:08.458Z,5.21
2023-01-08T22:19:37.309Z,5.21
2023-01-08T22:22:04.134Z,5.17
2023-01-08T22:24:32.114Z,5.14
2023-01-08T22:26:59.167Z,5.13
2023-01-08T22:29:27.593Z,5.14
2023-01-08T22:31:54.602Z,5.15
2023-01-08T22:34:22.671Z,5.17
2023-01-08T22:36:51.874Z,5.21
2023-01-08T22:39:19.590Z,5.30
2023-01-08T22:41:46.530Z,5.31
2023-01-08T22:44:14.041Z,5.34
2023-01-08T22:46:41.072Z,5.39
2023-01-08T22:49:11.071Z,5.41
2023-01-08T22:51:41.741Z,5.38
2023-01-08T22:54:14.221Z,5.33
2023-01-08T22:56:41.568Z,5.30
2023-01-08T22:59:08.270Z,5.31
2023-01-08T23:01:37.931Z,5.32
2023-01-08T23:04:04.906Z,5.32
2023-01-08T23:06:33.002Z,5.34
2023-01-08T23:09:01.655Z,5.35
2023-01-08T23:11:28.950Z,5.32
2023-01-08T23:13:55.719Z,5.27
2023-01-08T23:16:25.133Z,5.24
2023-01-08T23:18:55.858Z,5.24
2023-01-08T23:21:24.999Z,5.23
2023-01-08T23:23:53.071Z,5.21
2023-01-08T23:26:24.167Z,5.18
2023-01-08T23:28:52.825Z,5.14
2023-01-08T23:31:23.227Z,5.14
2023-01-08T23:33:50.849Z,5.12
2023-01-08T23:36:21.120Z,5.07
2023-01-08T23:38:49.715Z,5.01
2023-01-08T23:41:16.575Z,4.99
2023-01-08T23:43:46.096Z,5.01
2023-01-08T23:46:13.903Z,5.03
2023-01-08T23:48:41.781Z,5.06
2023-01-08T23:51:08.595Z,5.08
2023-01-08T23:53:36.243Z,5.12
2023-01-08T23:56:03.905Z,5.11
2023-01-08T23:58:31.289Z,5.13
